sensor_id;sensor_type;location;lat;lon;timestamp;temperature;humidity
3684;DHT22;1858;48.716;9.648;2022-10-16T00:02:08;16.00;1.00
3684;DHT22;1858;48.716;9.648;2022-10-16T00:04:36;16.10;1.00
3684;DHT22;1858;48.716;9.648;2022-10-16T00:07:05;16.20;1.00
3684;DHT22;1858;48.716;9.648;2022-10-16T00:09:52;16.10;99.90
3684;DHT22;1858;48.716;9.648;2022-10-16T00:12:21;16.10;99.90
3684;DHT22;1858;48.716;9.648;2022-10-16T00:14:49;16.10;99.90
3684;DHT22;1858;48.716;9.648;2022-10-16T00:17:17;16.00;99.90
3684;DHT22;1858;48.716;9.648;2022-10-16T00:19:46;16.00;1.00
3684;DHT22;1858;48.716;9.648;2022-10-16T00:22:14;16.00;1.00
3684;DHT22;1858;48.716;9.648;2022-10-16T00:24:42;16.10;1.00
3684;DHT22;1858;48.716;9.648;2022-10-16T00:27:11;16.10;1.00
3684;DHT22;1858;48.716;9.648;2022-10-16T00:29:39;16.10;1.00
3684;DHT22;1858;48.716;9.648;2022-10-16T00:32:27;16.10;1.00
3684;DHT22;1858;48.716;9.648;2022-10-16T00:34:56;16.10;1.00
3684;DHT22;1858;48.716;9.648;2022-10-16T00:37:44;16.10;99.90
3684;DHT22;1858;48.716;9.648;2022-10-16T00:40:12;16.10;99.90
3684;DHT22;1858;48.716;9.648;2022-10-16T00:42:40;16.10;99.90
3684;DHT22;1858;48.716;9.648;2022-10-16T00:45:10;16.10;99.90
3684;DHT22;1858;48.716;9.648;2022-10-16T00:47:43;16.10;99.90
3684;DHT22;1858;48.716;9.648;2022-10-16T00:50:22;16.10;99.90
3684;DHT22;1858;48.716;9.648;2022-10-16T00:53:07;16.00;99.90
3684;DHT22;1858;48.716;9.648;2022-10-16T00:55:55;16.00;99.90
3684;DHT22;1858;48.716;9.648;2022-10-16T00:58:23;15.90;99.90
3684;DHT22;1858;48.716;9.648;2022-10-16T01:00:52;15.90;99.90
3684;DHT22;1858;48.716;9.648;2022-10-16T01:06:43;15.90;99.90
3684;DHT22;1858;48.716;9.648;2022-10-16T01:09:34;15.90;99.90
3684;DHT22;1858;48.716;9.648;2022-10-16T01:12:14;15.90;99.90
3684;DHT22;1858;48.716;9.648;2022-10-16T01:14:59;15.80;99.90
3684;DHT22;1858;48.716;9.648;2022-10-16T01:17:34;15.80;99.90
3684;DHT22;1858;48.716;9.648;2022-10-16T01:31:07;15.60;99.90
3684;DHT22;1858;48.716;9.648;2022-10-16T01:33:40;15.50;99.90
3684;DHT22;1858;48.716;9.648;2022-10-16T01:36:17;15.50;99.90
3684;DHT22;1858;48.716;9.648;2022-10-16T01:38:44;15.50;1.00
3684;DHT22;1858;48.716;9.648;2022-10-16T01:44:05;15.50;1.00
3684;DHT22;1858;48.716;9.648;2022-10-16T01:46:36;15.50;1.00
3684;DHT22;1858;48.716;9.648;2022-10-16T01:49:06;15.50;1.00
3684;DHT22;1858;48.716;9.648;2022-10-16T01:51:37;15.50;1.00
3684;DHT22;1858;48.716;9.648;2022-10-16T01:54:07;15.50;1.00
3684;DHT22;1858;48.716;9.648;2022-10-16T01:56:36;15.50;99.90
3684;DHT22;1858;48.716;9.648;2022-10-16T01:59:14;15.40;99.90
3684;DHT22;1858;48.716;9.648;2022-10-16T02:01:40;15.40;99.90
3684;DHT22;1858;48.716;9.648;2022-10-16T02:04:17;15.40;99.90
3684;DHT22;1858;48.716;9.648;2022-10-16T02:07:03;15.40;99.90
3684;DHT22;1858;48.716;9.648;2022-10-16T02:09:33;15.40;99.90
3684;DHT22;1858;48.716;9.648;2022-10-16T02:12:12;15.40;1.00
3684;DHT22;1858;48.716;9.648;2022-10-16T02:14:40;15.40;1.00
3684;DHT22;1858;48.716;9.648;2022-10-16T02:20:22;15.40;1.00
3684;DHT22;1858;48.716;9.648;2022-10-16T02:22:51;15.50;1.00
3684;DHT22;1858;48.716;9.648;2022-10-16T02:25:26;15.50;1.00
3684;DHT22;1858;48.716;9.648;2022-10-16T02:28:28;15.50;1.00
3684;DHT22;1858;48.716;9.648;2022-10-16T02:31:02;15.50;1.00
3684;DHT22;1858;48.716;9.648;2022-10-16T02:36:20;15.50;1.00
3684;DHT22;1858;48.716;9.648;2022-10-16T02:38:49;15.50;1.00
3684;DHT22;1858;48.716;9.648;2022-10-16T02:41:20;15.60;1.00
3684;DHT22;1858;48.716;9.648;2022-10-16T02:43:49;15.60;1.00
3684;DHT22;1858;48.716;9.648;2022-10-16T02:46:18;15.70;1.00
3684;DHT22;1858;48.716;9.648;2022-10-16T02:51:34;15.80;1.00
3684;DHT22;1858;48.716;9.648;2022-10-16T02:54:03;15.70;1.00
3684;DHT22;1858;48.716;9.648;2022-10-16T02:56:31;15.80;1.00
3684;DHT22;1858;48.716;9.648;2022-10-16T02:59:13;15.80;1.00
3684;DHT22;1858;48.716;9.648;2022-10-16T03:01:41;15.80;99.90
3684;DHT22;1858;48.716;9.648;2022-10-16T03:04:29;15.80;99.90
3684;DHT22;1858;48.716;9.648;2022-10-16T03:06:58;15.70;99.90
3684;DHT22;1858;48.716;9.648;2022-10-16T03:09:26;15.60;1.00
3684;DHT22;1858;48.716;9.648;2022-10-16T03:11:54;15.60;1.00
3684;DHT22;1858;48.716;9.648;2022-10-16T03:14:23;15.60;1.00
3684;DHT22;1858;48.716;9.648;2022-10-16T03:16:51;15.60;1.00
3684;DHT22;1858;48.716;9.648;2022-10-16T03:19:20;15.60;1.00
3684;DHT22;1858;48.716;9.648;2022-10-16T03:22:07;15.60;18.90
3684;DHT22;1858;48.716;9.648;2022-10-16T03:24:36;15.60;99.90
3684;DHT22;1858;48.716;9.648;2022-10-16T03:27:23;15.60;96.80
3684;DHT22;1858;48.716;9.648;2022-10-16T03:32:41;15.50;1.00
3684;DHT22;1858;48.716;9.648;2022-10-16T03:35:31;15.50;54.00
3684;DHT22;1858;48.716;9.648;2022-10-16T03:38:00;15.50;99.90
3684;DHT22;1858;48.716;9.648;2022-10-16T03:40:48;15.40;99.90
3684;DHT22;1858;48.716;9.648;2022-10-16T03:43:35;15.40;99.90
3684;DHT22;1858;48.716;9.648;2022-10-16T03:46:04;15.50;99.90
3684;DHT22;1858;48.716;9.648;2022-10-16T03:48:32;15.50;99.90
3684;DHT22;1858;48.716;9.648;2022-10-16T03:51:01;15.50;99.90
3684;DHT22;1858;48.716;9.648;2022-10-16T03:53:29;15.50;99.90
3684;DHT22;1858;48.716;9.648;2022-10-16T03:55:58;15.60;99.90
3684;DHT22;1858;48.716;9.648;2022-10-16T03:58:26;15.60;99.90
3684;DHT22;1858;48.716;9.648;2022-10-16T04:00:54;15.60;57.50
3684;DHT22;1858;48.716;9.648;2022-10-16T04:03:23;15.50;1.00
3684;DHT22;1858;48.716;9.648;2022-10-16T04:05:51;15.50;1.00
3684;DHT22;1858;48.716;9.648;2022-10-16T04:08:20;15.40;1.00
3684;DHT22;1858;48.716;9.648;2022-10-16T04:10:48;15.40;1.00
3684;DHT22;1858;48.716;9.648;2022-10-16T04:13:17;15.50;1.00
3684;DHT22;1858;48.716;9.648;2022-10-16T04:15:46;15.50;1.00
3684;DHT22;1858;48.716;9.648;2022-10-16T04:18:14;15.50;1.00
3684;DHT22;1858;48.716;9.648;2022-10-16T04:20:43;15.50;1.00
3684;DHT22;1858;48.716;9.648;2022-10-16T04:23:11;15.50;1.00
3684;DHT22;1858;48.716;9.648;2022-10-16T04:25:39;15.50;1.00
3684;DHT22;1858;48.716;9.648;2022-10-16T04:28:08;15.40;1.00
3684;DHT22;1858;48.716;9.648;2022-10-16T04:30:38;15.40;1.00
3684;DHT22;1858;48.716;9.648;2022-10-16T04:33:09;15.50;1.00
3684;DHT22;1858;48.716;9.648;2022-10-16T04:35:37;15.50;1.00
3684;DHT22;1858;48.716;9.648;2022-10-16T04:38:05;15.50;1.00
3684;DHT22;1858;48.716;9.648;2022-10-16T04:40:34;15.40;1.00
3684;DHT22;1858;48.716;9.648;2022-10-16T04:43:05;15.40;1.00
3684;DHT22;1858;48.716;9.648;2022-10-16T04:45:34;15.40;1.00
3684;DHT22;1858;48.716;9.648;2022-10-16T04:48:03;15.40;1.00
3684;DHT22;1858;48.716;9.648;2022-10-16T04:50:31;15.40;1.00
3684;DHT22;1858;48.716;9.648;2022-10-16T04:52:59;15.30;1.00
3684;DHT22;1858;48.716;9.648;2022-10-16T04:55:28;15.40;1.00
3684;DHT22;1858;48.716;9.648;2022-10-16T04:57:56;15.20;1.00
3684;DHT22;1858;48.716;9.648;2022-10-16T05:00:25;15.30;1.00
3684;DHT22;1858;48.716;9.648;2022-10-16T05:02:53;15.40;1.00
3684;DHT22;1858;48.716;9.648;2022-10-16T05:05:44;15.40;1.00
3684;DHT22;1858;48.716;9.648;2022-10-16T05:08:13;15.40;1.00
3684;DHT22;1858;48.716;9.648;2022-10-16T05:13:51;15.40;1.00
3684;DHT22;1858;48.716;9.648;2022-10-16T05:16:19;15.40;1.00
3684;DHT22;1858;48.716;9.648;2022-10-16T05:18:48;15.30;1.00
3684;DHT22;1858;48.716;9.648;2022-10-16T05:21:16;15.40;1.00
3684;DHT22;1858;48.716;9.648;2022-10-16T05:23:45;15.40;1.00
3684;DHT22;1858;48.716;9.648;2022-10-16T05:26:13;15.40;1.00
3684;DHT22;1858;48.716;9.648;2022-10-16T05:28:41;15.40;1.00
3684;DHT22;1858;48.716;9.648;2022-10-16T05:31:10;15.40;99.90
3684;DHT22;1858;48.716;9.648;2022-10-16T05:33:38;15.40;99.90
3684;DHT22;1858;48.716;9.648;2022-10-16T05:36:08;15.40;1.00
3684;DHT22;1858;48.716;9.648;2022-10-16T05:38:57;15.40;1.00
3684;DHT22;1858;48.716;9.648;2022-10-16T05:41:25;15.40;1.00
3684;DHT22;1858;48.716;9.648;2022-10-16T05:43:54;15.40;1.00
3684;DHT22;1858;48.716;9.648;2022-10-16T05:46:41;15.40;99.90
3684;DHT22;1858;48.716;9.648;2022-10-16T05:49:10;15.50;1.00
3684;DHT22;1858;48.716;9.648;2022-10-16T05:51:38;15.50;99.90
3684;DHT22;1858;48.716;9.648;2022-10-16T05:54:06;15.50;99.90
3684;DHT22;1858;48.716;9.648;2022-10-16T05:56:35;15.50;99.90
3684;DHT22;1858;48.716;9.648;2022-10-16T05:59:04;15.50;99.90
3684;DHT22;1858;48.716;9.648;2022-10-16T06:01:33;15.60;99.90
3684;DHT22;1858;48.716;9.648;2022-10-16T06:04:02;15.60;99.90
3684;DHT22;1858;48.716;9.648;2022-10-16T06:09:20;15.60;99.90
3684;DHT22;1858;48.716;9.648;2022-10-16T06:11:48;15.60;99.90
3684;DHT22;1858;48.716;9.648;2022-10-16T06:14:17;15.60;99.90
3684;DHT22;1858;48.716;9.648;2022-10-16T06:17:05;15.70;99.90
3684;DHT22;1858;48.716;9.648;2022-10-16T06:19:33;15.70;99.90
3684;DHT22;1858;48.716;9.648;2022-10-16T06:22:01;15.70;99.90
3684;DHT22;1858;48.716;9.648;2022-10-16T06:24:31;15.80;99.90
3684;DHT22;1858;48.716;9.648;2022-10-16T06:27:00;15.90;99.90
3684;DHT22;1858;48.716;9.648;2022-10-16T06:29:29;15.90;74.70
3684;DHT22;1858;48.716;9.648;2022-10-16T06:31:57;15.90;1.00
3684;DHT22;1858;48.716;9.648;2022-10-16T06:34:25;16.00;1.00
3684;DHT22;1858;48.716;9.648;2022-10-16T06:36:54;16.10;1.00
3684;DHT22;1858;48.716;9.648;2022-10-16T06:39:22;16.10;1.00
3684;DHT22;1858;48.716;9.648;2022-10-16T06:41:51;16.10;1.00
3684;DHT22;1858;48.716;9.648;2022-10-16T06:44:19;16.30;1.00
3684;DHT22;1858;48.716;9.648;2022-10-16T06:46:48;16.40;1.00
3684;DHT22;1858;48.716;9.648;2022-10-16T06:49:16;16.50;1.00
3684;DHT22;1858;48.716;9.648;2022-10-16T06:51:46;16.60;1.00
3684;DHT22;1858;48.716;9.648;2022-10-16T06:54:15;16.70;1.00
3684;DHT22;1858;48.716;9.648;2022-10-16T06:56:45;16.70;1.00
3684;DHT22;1858;48.716;9.648;2022-10-16T06:59:32;16.80;1.00
3684;DHT22;1858;48.716;9.648;2022-10-16T07:02:01;16.90;99.90
3684;DHT22;1858;48.716;9.648;2022-10-16T07:04:29;17.00;99.90
3684;DHT22;1858;48.716;9.648;2022-10-16T07:06:59;17.20;99.90
3684;DHT22;1858;48.716;9.648;2022-10-16T07:09:27;17.40;99.90
3684;DHT22;1858;48.716;9.648;2022-10-16T07:11:56;17.40;99.90
3684;DHT22;1858;48.716;9.648;2022-10-16T07:14:24;17.60;99.90
3684;DHT22;1858;48.716;9.648;2022-10-16T07:16:52;17.70;99.90
3684;DHT22;1858;48.716;9.648;2022-10-16T07:19:21;17.80;99.90
3684;DHT22;1858;48.716;9.648;2022-10-16T07:21:49;17.90;99.90
3684;DHT22;1858;48.716;9.648;2022-10-16T07:24:37;18.10;99.90
3684;DHT22;1858;48.716;9.648;2022-10-16T07:27:05;18.20;99.90
3684;DHT22;1858;48.716;9.648;2022-10-16T07:29:34;18.40;99.90
3684;DHT22;1858;48.716;9.648;2022-10-16T07:32:02;18.60;38.20
3684;DHT22;1858;48.716;9.648;2022-10-16T07:34:31;18.70;1.00
3684;DHT22;1858;48.716;9.648;2022-10-16T07:36:59;18.70;1.00
3684;DHT22;1858;48.716;9.648;2022-10-16T07:39:27;18.80;1.00
3684;DHT22;1858;48.716;9.648;2022-10-16T07:42:09;18.80;1.00
3684;DHT22;1858;48.716;9.648;2022-10-16T07:44:37;18.80;1.00
3684;DHT22;1858;48.716;9.648;2022-10-16T07:47:07;18.90;1.00
3684;DHT22;1858;48.716;9.648;2022-10-16T07:49:55;19.00;1.00
3684;DHT22;1858;48.716;9.648;2022-10-16T07:52:23;19.10;1.00
3684;DHT22;1858;48.716;9.648;2022-10-16T07:54:52;19.20;1.00
3684;DHT22;1858;48.716;9.648;2022-10-16T07:57:20;19.10;1.00
3684;DHT22;1858;48.716;9.648;2022-10-16T07:59:48;19.20;1.00
3684;DHT22;1858;48.716;9.648;2022-10-16T08:02:36;19.20;1.00
3684;DHT22;1858;48.716;9.648;2022-10-16T08:05:05;19.00;1.00
3684;DHT22;1858;48.716;9.648;2022-10-16T08:07:33;19.10;1.00
3684;DHT22;1858;48.716;9.648;2022-10-16T08:10:02;19.10;1.00
3684;DHT22;1858;48.716;9.648;2022-10-16T08:12:50;19.20;1.00
3684;DHT22;1858;48.716;9.648;2022-10-16T08:15:19;19.10;1.00
3684;DHT22;1858;48.716;9.648;2022-10-16T08:18:01;19.20;1.00
3684;DHT22;1858;48.716;9.648;2022-10-16T08:20:30;19.20;1.00
3684;DHT22;1858;48.716;9.648;2022-10-16T08:23:00;19.30;1.00
3684;DHT22;1858;48.716;9.648;2022-10-16T08:25:28;19.30;1.00
3684;DHT22;1858;48.716;9.648;2022-10-16T08:27:57;19.40;1.00
3684;DHT22;1858;48.716;9.648;2022-10-16T08:30:25;19.40;1.00
3684;DHT22;1858;48.716;9.648;2022-10-16T08:32:53;19.40;1.00
3684;DHT22;1858;48.716;9.648;2022-10-16T08:35:22;19.50;1.00
3684;DHT22;1858;48.716;9.648;2022-10-16T08:37:50;19.60;1.00
3684;DHT22;1858;48.716;9.648;2022-10-16T08:40:22;19.60;1.00
3684;DHT22;1858;48.716;9.648;2022-10-16T08:46:01;19.90;1.00
3684;DHT22;1858;48.716;9.648;2022-10-16T08:48:26;20.10;1.00
3684;DHT22;1858;48.716;9.648;2022-10-16T08:50:53;20.30;1.00
3684;DHT22;1858;48.716;9.648;2022-10-16T08:53:43;20.40;1.00
3684;DHT22;1858;48.716;9.648;2022-10-16T08:56:11;20.50;1.00
3684;DHT22;1858;48.716;9.648;2022-10-16T08:58:40;20.70;99.90
3684;DHT22;1858;48.716;9.648;2022-10-16T09:01:17;20.90;99.90
3684;DHT22;1858;48.716;9.648;2022-10-16T09:03:48;21.00;99.90
3684;DHT22;1858;48.716;9.648;2022-10-16T09:09:34;21.30;99.90
3684;DHT22;1858;48.716;9.648;2022-10-16T09:17:59;21.30;99.90
3684;DHT22;1858;48.716;9.648;2022-10-16T09:20:50;21.30;99.90
3684;DHT22;1858;48.716;9.648;2022-10-16T09:23:27;21.00;99.90
3684;DHT22;1858;48.716;9.648;2022-10-16T09:25:57;21.00;99.90
3684;DHT22;1858;48.716;9.648;2022-10-16T09:28:26;21.00;99.90
3684;DHT22;1858;48.716;9.648;2022-10-16T09:30:55;20.90;99.90
3684;DHT22;1858;48.716;9.648;2022-10-16T09:33:35;21.00;1.00
3684;DHT22;1858;48.716;9.648;2022-10-16T09:36:05;21.00;1.00
3684;DHT22;1858;48.716;9.648;2022-10-16T09:47:05;21.40;1.00
3684;DHT22;1858;48.716;9.648;2022-10-16T09:49:34;21.50;99.90
3684;DHT22;1858;48.716;9.648;2022-10-16T09:52:23;21.60;99.90
3684;DHT22;1858;48.716;9.648;2022-10-16T09:54:59;21.70;99.90
3684;DHT22;1858;48.716;9.648;2022-10-16T09:57:25;21.70;99.90
3684;DHT22;1858;48.716;9.648;2022-10-16T09:59:56;21.80;99.90
3684;DHT22;1858;48.716;9.648;2022-10-16T10:02:35;21.90;99.90
3684;DHT22;1858;48.716;9.648;2022-10-16T10:05:17;22.20;99.90
3684;DHT22;1858;48.716;9.648;2022-10-16T10:07:40;22.40;99.90
3684;DHT22;1858;48.716;9.648;2022-10-16T10:10:20;22.50;99.90
3684;DHT22;1858;48.716;9.648;2022-10-16T10:12:48;22.70;99.90
3684;DHT22;1858;48.716;9.648;2022-10-16T10:15:17;22.90;80.20
3684;DHT22;1858;48.716;9.648;2022-10-16T10:17:55;23.00;28.30
3684;DHT22;1858;48.716;9.648;2022-10-16T10:20:27;23.20;99.90
3684;DHT22;1858;48.716;9.648;2022-10-16T10:22:56;23.10;99.90
3684;DHT22;1858;48.716;9.648;2022-10-16T10:31:19;23.30;13.30
3684;DHT22;1858;48.716;9.648;2022-10-16T10:33:57;23.40;68.30
3684;DHT22;1858;48.716;9.648;2022-10-16T10:36:29;23.40;20.40
3684;DHT22;1858;48.716;9.648;2022-10-16T10:42:44;23.30;9.40
3684;DHT22;1858;48.716;9.648;2022-10-16T10:45:36;23.50;32.60
3684;DHT22;1858;48.716;9.648;2022-10-16T10:54:14;23.80;1.00
3684;DHT22;1858;48.716;9.648;2022-10-16T10:57:03;24.00;1.00
3684;DHT22;1858;48.716;9.648;2022-10-16T10:59:49;24.10;1.00
3684;DHT22;1858;48.716;9.648;2022-10-16T11:02:26;24.10;1.00
3684;DHT22;1858;48.716;9.648;2022-10-16T11:05:21;24.10;1.00
3684;DHT22;1858;48.716;9.648;2022-10-16T11:08:14;24.00;1.00
3684;DHT22;1858;48.716;9.648;2022-10-16T11:13:42;23.80;1.00
3684;DHT22;1858;48.716;9.648;2022-10-16T11:16:37;23.80;1.00
3684;DHT22;1858;48.716;9.648;2022-10-16T11:25:22;24.60;1.00
3684;DHT22;1858;48.716;9.648;2022-10-16T11:28:38;24.90;1.00
3684;DHT22;1858;48.716;9.648;2022-10-16T11:30:47;25.10;1.00
3684;DHT22;1858;48.716;9.648;2022-10-16T11:36:23;25.00;1.00
3684;DHT22;1858;48.716;9.648;2022-10-16T11:39:06;25.00;1.00
3684;DHT22;1858;48.716;9.648;2022-10-16T11:44:49;24.70;1.00
3684;DHT22;1858;48.716;9.648;2022-10-16T11:47:43;24.80;1.00
3684;DHT22;1858;48.716;9.648;2022-10-16T11:53:07;24.60;1.00
3684;DHT22;1858;48.716;9.648;2022-10-16T11:56:15;24.40;1.00
3684;DHT22;1858;48.716;9.648;2022-10-16T12:01:38;24.30;1.00
3684;DHT22;1858;48.716;9.648;2022-10-16T12:04:33;24.20;1.00
3684;DHT22;1858;48.716;9.648;2022-10-16T12:07:22;24.00;1.00
3684;DHT22;1858;48.716;9.648;2022-10-16T12:09:51;24.00;1.00
3684;DHT22;1858;48.716;9.648;2022-10-16T12:15:30;24.00;1.00
3684;DHT22;1858;48.716;9.648;2022-10-16T12:20:56;24.00;1.00
3684;DHT22;1858;48.716;9.648;2022-10-16T12:23:53;24.00;1.00
3684;DHT22;1858;48.716;9.648;2022-10-16T12:26:27;24.00;1.00
3684;DHT22;1858;48.716;9.648;2022-10-16T12:28:57;24.00;1.00
3684;DHT22;1858;48.716;9.648;2022-10-16T12:31:35;24.00;1.00
3684;DHT22;1858;48.716;9.648;2022-10-16T12:34:00;24.00;1.00
3684;DHT22;1858;48.716;9.648;2022-10-16T12:36:35;24.00;1.00
3684;DHT22;1858;48.716;9.648;2022-10-16T12:39:01;23.90;1.00
3684;DHT22;1858;48.716;9.648;2022-10-16T12:41:36;23.90;1.00
3684;DHT22;1858;48.716;9.648;2022-10-16T12:44:27;23.80;1.00
3684;DHT22;1858;48.716;9.648;2022-10-16T12:46:51;23.70;1.00
3684;DHT22;1858;48.716;9.648;2022-10-16T12:49:30;23.80;1.00
3684;DHT22;1858;48.716;9.648;2022-10-16T12:52:35;23.80;1.00
3684;DHT22;1858;48.716;9.648;2022-10-16T12:55:05;23.80;1.00
3684;DHT22;1858;48.716;9.648;2022-10-16T13:00:44;23.90;1.00
3684;DHT22;1858;48.716;9.648;2022-10-16T13:03:45;23.90;1.00
3684;DHT22;1858;48.716;9.648;2022-10-16T13:06:30;24.00;1.00
3684;DHT22;1858;48.716;9.648;2022-10-16T13:26:44;24.40;1.00
3684;DHT22;1858;48.716;9.648;2022-10-16T13:29:12;24.50;1.00
3684;DHT22;1858;48.716;9.648;2022-10-16T13:34:31;24.60;1.00
3684;DHT22;1858;48.716;9.648;2022-10-16T13:36:59;24.60;1.00
3684;DHT22;1858;48.716;9.648;2022-10-16T13:39:29;24.70;1.00
3684;DHT22;1858;48.716;9.648;2022-10-16T13:44:42;25.00;1.00
3684;DHT22;1858;48.716;9.648;2022-10-16T13:50:12;25.10;1.00
3684;DHT22;1858;48.716;9.648;2022-10-16T13:52:41;25.00;1.00
3684;DHT22;1858;48.716;9.648;2022-10-16T13:55:17;24.90;1.00
3684;DHT22;1858;48.716;9.648;2022-10-16T13:58:10;24.70;1.00
3684;DHT22;1858;48.716;9.648;2022-10-16T14:00:38;24.60;1.00
3684;DHT22;1858;48.716;9.648;2022-10-16T14:06:04;24.30;1.00
3684;DHT22;1858;48.716;9.648;2022-10-16T14:09:03;24.20;1.00
3684;DHT22;1858;48.716;9.648;2022-10-16T14:11:26;24.10;1.00
3684;DHT22;1858;48.716;9.648;2022-10-16T14:16:44;23.80;1.00
3684;DHT22;1858;48.716;9.648;2022-10-16T14:19:24;23.60;1.00
3684;DHT22;1858;48.716;9.648;2022-10-16T14:24:46;23.50;1.00
3684;DHT22;1858;48.716;9.648;2022-10-16T14:27:32;23.30;1.00
3684;DHT22;1858;48.716;9.648;2022-10-16T14:41:49;23.00;1.00
3684;DHT22;1858;48.716;9.648;2022-10-16T14:44:27;23.00;1.00
3684;DHT22;1858;48.716;9.648;2022-10-16T14:46:49;23.10;1.00
3684;DHT22;1858;48.716;9.648;2022-10-16T14:49:19;23.00;1.00
3684;DHT22;1858;48.716;9.648;2022-10-16T14:51:48;23.00;1.00
3684;DHT22;1858;48.716;9.648;2022-10-16T14:54:18;23.00;1.00
3684;DHT22;1858;48.716;9.648;2022-10-16T14:56:55;22.90;1.00
3684;DHT22;1858;48.716;9.648;2022-10-16T15:02:32;22.90;1.00
3684;DHT22;1858;48.716;9.648;2022-10-16T15:05:21;22.90;1.00
3684;DHT22;1858;48.716;9.648;2022-10-16T15:07:52;22.90;1.00
3684;DHT22;1858;48.716;9.648;2022-10-16T15:13:15;22.90;1.00
3684;DHT22;1858;48.716;9.648;2022-10-16T15:15:45;22.80;1.00
3684;DHT22;1858;48.716;9.648;2022-10-16T15:18:33;22.70;1.00
3684;DHT22;1858;48.716;9.648;2022-10-16T15:21:01;22.70;1.00
3684;DHT22;1858;48.716;9.648;2022-10-16T15:23:49;22.70;1.00
3684;DHT22;1858;48.716;9.648;2022-10-16T15:26:18;22.70;1.00
3684;DHT22;1858;48.716;9.648;2022-10-16T15:28:46;22.70;1.00
3684;DHT22;1858;48.716;9.648;2022-10-16T15:31:15;22.60;1.00
3684;DHT22;1858;48.716;9.648;2022-10-16T15:33:43;22.50;1.00
3684;DHT22;1858;48.716;9.648;2022-10-16T15:36:13;22.50;1.00
3684;DHT22;1858;48.716;9.648;2022-10-16T15:38:42;22.50;1.00
3684;DHT22;1858;48.716;9.648;2022-10-16T15:41:11;22.40;1.00
3684;DHT22;1858;48.716;9.648;2022-10-16T15:43:39;22.50;1.00
3684;DHT22;1858;48.716;9.648;2022-10-16T15:46:27;22.30;1.00
3684;DHT22;1858;48.716;9.648;2022-10-16T15:48:58;22.30;1.00
3684;DHT22;1858;48.716;9.648;2022-10-16T15:54:16;22.20;1.00
3684;DHT22;1858;48.716;9.648;2022-10-16T15:56:48;22.10;1.00
3684;DHT22;1858;48.716;9.648;2022-10-16T15:59:16;22.10;1.00
3684;DHT22;1858;48.716;9.648;2022-10-16T16:01:44;22.00;1.00
3684;DHT22;1858;48.716;9.648;2022-10-16T16:04:13;22.00;1.00
3684;DHT22;1858;48.716;9.648;2022-10-16T16:06:42;21.90;1.00
3684;DHT22;1858;48.716;9.648;2022-10-16T16:09:13;21.80;1.00
3684;DHT22;1858;48.716;9.648;2022-10-16T16:12:01;21.70;1.00
3684;DHT22;1858;48.716;9.648;2022-10-16T16:14:29;21.60;1.00
3684;DHT22;1858;48.716;9.648;2022-10-16T16:17:11;21.50;1.00
3684;DHT22;1858;48.716;9.648;2022-10-16T16:19:58;21.50;1.00
3684;DHT22;1858;48.716;9.648;2022-10-16T16:22:27;21.40;19.10
3684;DHT22;1858;48.716;9.648;2022-10-16T16:24:56;21.40;21.30
3684;DHT22;1858;48.716;9.648;2022-10-16T16:27:43;21.30;27.40
3684;DHT22;1858;48.716;9.648;2022-10-16T16:30:12;21.30;99.90
3684;DHT22;1858;48.716;9.648;2022-10-16T16:32:40;21.20;91.60
3684;DHT22;1858;48.716;9.648;2022-10-16T16:35:10;21.10;99.90
3684;DHT22;1858;48.716;9.648;2022-10-16T16:37:38;21.00;99.90
3684;DHT22;1858;48.716;9.648;2022-10-16T16:40:06;21.00;99.90
3684;DHT22;1858;48.716;9.648;2022-10-16T16:42:35;20.90;99.90
3684;DHT22;1858;48.716;9.648;2022-10-16T16:45:04;20.80;99.90
3684;DHT22;1858;48.716;9.648;2022-10-16T16:47:53;20.80;99.90
3684;DHT22;1858;48.716;9.648;2022-10-16T16:50:21;20.70;99.90
3684;DHT22;1858;48.716;9.648;2022-10-16T16:52:49;20.60;99.90
3684;DHT22;1858;48.716;9.648;2022-10-16T16:55:19;20.50;99.90
3684;DHT22;1858;48.716;9.648;2022-10-16T16:57:50;20.50;99.90
3684;DHT22;1858;48.716;9.648;2022-10-16T17:00:19;20.40;99.90
3684;DHT22;1858;48.716;9.648;2022-10-16T17:02:51;20.40;99.90
3684;DHT22;1858;48.716;9.648;2022-10-16T17:05:19;20.30;99.90
3684;DHT22;1858;48.716;9.648;2022-10-16T17:07:47;20.20;99.90
3684;DHT22;1858;48.716;9.648;2022-10-16T17:10:16;20.20;99.90
3684;DHT22;1858;48.716;9.648;2022-10-16T17:12:45;20.10;99.90
3684;DHT22;1858;48.716;9.648;2022-10-16T17:15:13;20.00;99.90
3684;DHT22;1858;48.716;9.648;2022-10-16T17:17:41;19.90;99.90
3684;DHT22;1858;48.716;9.648;2022-10-16T17:20:10;19.80;99.90
3684;DHT22;1858;48.716;9.648;2022-10-16T17:22:38;19.70;99.90
3684;DHT22;1858;48.716;9.648;2022-10-16T17:25:08;19.70;99.90
3684;DHT22;1858;48.716;9.648;2022-10-16T17:27:37;19.70;99.90
3684;DHT22;1858;48.716;9.648;2022-10-16T17:30:24;19.70;99.90
3684;DHT22;1858;48.716;9.648;2022-10-16T17:33:12;19.60;99.90
3684;DHT22;1858;48.716;9.648;2022-10-16T17:38:30;19.30;99.90
3684;DHT22;1858;48.716;9.648;2022-10-16T17:40:58;19.30;99.90
3684;DHT22;1858;48.716;9.648;2022-10-16T17:43:28;19.20;99.90
3684;DHT22;1858;48.716;9.648;2022-10-16T17:45:56;19.20;99.90
3684;DHT22;1858;48.716;9.648;2022-10-16T17:48:47;19.10;99.90
3684;DHT22;1858;48.716;9.648;2022-10-16T17:51:24;19.00;99.90
3684;DHT22;1858;48.716;9.648;2022-10-16T17:53:55;18.90;99.90
3684;DHT22;1858;48.716;9.648;2022-10-16T17:56:24;18.80;99.90
3684;DHT22;1858;48.716;9.648;2022-10-16T17:58:55;18.80;99.90
3684;DHT22;1858;48.716;9.648;2022-10-16T18:01:34;18.70;99.90
3684;DHT22;1858;48.716;9.648;2022-10-16T18:04:06;18.60;99.90
3684;DHT22;1858;48.716;9.648;2022-10-16T18:06:55;18.70;99.90
3684;DHT22;1858;48.716;9.648;2022-10-16T18:09:23;18.60;99.90
3684;DHT22;1858;48.716;9.648;2022-10-16T18:11:51;18.60;99.90
3684;DHT22;1858;48.716;9.648;2022-10-16T18:14:21;18.60;99.90
3684;DHT22;1858;48.716;9.648;2022-10-16T18:16:50;18.60;99.90
3684;DHT22;1858;48.716;9.648;2022-10-16T18:19:19;18.50;99.90
3684;DHT22;1858;48.716;9.648;2022-10-16T18:24:38;18.40;99.90
3684;DHT22;1858;48.716;9.648;2022-10-16T18:27:25;18.40;99.90
3684;DHT22;1858;48.716;9.648;2022-10-16T18:29:54;18.40;99.90
3684;DHT22;1858;48.716;9.648;2022-10-16T18:35:13;18.40;99.90
3684;DHT22;1858;48.716;9.648;2022-10-16T18:37:41;18.30;99.90
3684;DHT22;1858;48.716;9.648;2022-10-16T18:40:29;18.20;99.90
3684;DHT22;1858;48.716;9.648;2022-10-16T18:42:57;18.20;99.90
3684;DHT22;1858;48.716;9.648;2022-10-16T18:45:25;18.20;99.90
3684;DHT22;1858;48.716;9.648;2022-10-16T18:47:54;18.10;99.90
3684;DHT22;1858;48.716;9.648;2022-10-16T18:50:22;18.00;1.00
3684;DHT22;1858;48.716;9.648;2022-10-16T18:52:51;17.90;1.00
3684;DHT22;1858;48.716;9.648;2022-10-16T18:55:19;17.80;1.00
3684;DHT22;1858;48.716;9.648;2022-10-16T18:57:48;17.90;1.00
3684;DHT22;1858;48.716;9.648;2022-10-16T19:00:17;17.80;1.00
3684;DHT22;1858;48.716;9.648;2022-10-16T19:02:45;17.80;1.00
3684;DHT22;1858;48.716;9.648;2022-10-16T19:05:33;17.70;1.00
3684;DHT22;1858;48.716;9.648;2022-10-16T19:08:01;17.70;1.00
3684;DHT22;1858;48.716;9.648;2022-10-16T19:10:30;17.70;1.00
3684;DHT22;1858;48.716;9.648;2022-10-16T19:12:58;17.70;1.00
3684;DHT22;1858;48.716;9.648;2022-10-16T19:15:26;17.60;1.00
3684;DHT22;1858;48.716;9.648;2022-10-16T19:17:55;17.60;1.00
3684;DHT22;1858;48.716;9.648;2022-10-16T19:20:23;17.50;1.00
3684;DHT22;1858;48.716;9.648;2022-10-16T19:22:51;17.40;1.00
3684;DHT22;1858;48.716;9.648;2022-10-16T19:25:43;17.40;1.00
3684;DHT22;1858;48.716;9.648;2022-10-16T19:28:12;17.40;1.00
3684;DHT22;1858;48.716;9.648;2022-10-16T19:30:41;17.40;1.00
3684;DHT22;1858;48.716;9.648;2022-10-16T19:33:11;17.40;1.00
3684;DHT22;1858;48.716;9.648;2022-10-16T19:35:39;17.30;1.00